Merritt, Canada
Current Conditions -  °F | °C
As of 8:00 PM on Friday 19 Dec 2014 (Local Time) from CWLY Reporting Station
Broken Clouds Broken Clouds  
Wind Chill: 37°   Ceiling: 22000
Heat Index: 43°   Visibility: 9mi
Dew Point: 36°   Wind: 9mph
Humidity: 76%   Direction: 210°SSW
Pressure: 29.82"   Gusts: 28mph
Location:  50.11°N, 120.79°W
Report Text: CWLY 200400Z AUTO 21008G24KT 9SM SCT200 BKN220 06/02 A2982 RMK SLP103
Loading
Personal Weather Stations






























Interactive Weather Map New forecast layout! Learn more

10-Day Weather Forecast

Advertisements
Track Severe Weather on mobile